Leesburg, AL (35983)

9:11 AM CDT on September 19, 2014 (GMT -0500)
The Ridges | Change Station
CLOSE
Current Station
Personal Weather Station
Location: Cedar Bluff, AL
Elevation: 639 ft
Nearby Weather Stations

Elev 639 ft 34.29 °N, 85.63 °W | Updated 56 seconds ago

Clear
Clear
74.3 °F
Feels Like 77 °F
N
1.8
Wind Variable Wind from NW
Gusts 5.4 mph

Today
High -- | Low -- °F
--% Chance of Precip.
Yesterday
High -- | Low -- °F
Precip. -- in
6:29 AM 6:44 PM
Waning Crescent, 19% visible
Pressure 30.07 in
Visibility 10.0 miles
Clouds Clear
Heat Index 77 °F
Dew Point 56 °F
Humidity 53%
Rainfall 0.02 in
Snow Depth Not available.
UV 3 out of 12
Pollen 7.80 out of 12
Air Quality Not available.
Flu Activity Not available.
METAR K4A9 191355Z AUTO 06005KT 10SM CLR 22/16 A3007 RMK AO2

More Conditions Fewer Conditions

Pressure 30.07 in
Visibility 10.0 miles
Clouds Clear
Heat Index 77 °F
Dew Point 56 °F
Humidity 53%
Rainfall 0.02 in
Snow Depth Not available.
UV 3 out of 12
Pollen 7.80 out of 12
Air Quality Not available.
Flu Activity Not available.
METAR K4A9 191355Z AUTO 06005KT 10SM CLR 22/16 A3007 RMK AO2

More Conditions Fewer Conditions

10-Day Weather Forecast

Almanac

Astronomy

Sep. 19, 2014 Rise Set
Actual Time 6:29 AM CDT 6:44 PM CDT
Civil Twilight 6:03 AM CDT 7:09 PM CDT
Nautical Twilight 5:34 AM CDT 7:38 PM CDT
Astronomical Twilight 5:04 AM CDT 8:07 PM CDT
Moon 2:22 AM CDT 4:04 PM CDT
Length of Visible Light 13h 05m
Length of Day
12h 15m
Tomorrow will be 2m 7s shorter.
Waning Crescent, 19% of the Moon is Illuminated
Today
Waning Crescent
Sep 24
New
Oct 1
First Quarter
Oct 8
Full
Oct 15
Last Quarter

Today's Extremes

State Highs State Lows

Community

WunderPhotos

Upload Photos

1,754,614 photos uploaded!

WunderBlogs® & News

Nearby

Snow Depth

Station Depth Elevation
No new snow has been reported.

Earthquake Activity

City Distance Mag. Time & Date
No recent earthquake activity has been reported nearby.
Minimum magnitude displayed is 2.5.

Coastal Water Temperatures

Place Temperature
No Stations Reporting

Nearby Weather Stations